createdAt,value
2023-09-15T00:00:05.522Z,26.40
2023-09-15T00:01:07.015Z,26.40
2023-09-15T00:02:08.636Z,26.45
2023-09-15T00:03:12.483Z,26.45
2023-09-15T00:04:12.505Z,26.41
2023-09-15T00:05:13.785Z,26.43
2023-09-15T00:06:15.176Z,26.41
2023-09-15T00:07:16.595Z,26.41
2023-09-15T00:08:17.988Z,26.47
2023-09-15T00:09:19.435Z,26.38
2023-09-15T00:10:20.877Z,26.38
2023-09-15T00:11:22.271Z,26.37
2023-09-15T00:12:23.666Z,26.37
2023-09-15T00:13:25.151Z,26.43
2023-09-15T00:14:26.633Z,26.38
2023-09-15T00:15:28.038Z,26.40
2023-09-15T00:16:29.554Z,26.40
2023-09-15T00:17:31.144Z,26.37
2023-09-15T00:18:32.395Z,26.37
2023-09-15T00:19:33.785Z,26.33
2023-09-15T00:20:35.180Z,26.37
2023-09-15T00:21:36.573Z,26.33
2023-09-15T00:22:37.968Z,26.37
2023-09-15T00:23:39.358Z,26.36
2023-09-15T00:24:40.758Z,26.38
2023-09-15T00:25:42.178Z,26.29
2023-09-15T00:26:43.584Z,26.38
2023-09-15T00:27:45.000Z,26.34
2023-09-15T00:28:46.608Z,26.36
2023-09-15T00:29:48.162Z,26.37
2023-09-15T00:30:49.564Z,26.29
2023-09-15T00:31:50.959Z,26.34
2023-09-15T00:32:52.549Z,26.33
2023-09-15T00:33:53.904Z,26.40
2023-09-15T00:34:55.293Z,26.37
2023-09-15T00:35:56.791Z,26.34
2023-09-15T00:36:58.255Z,26.33
2023-09-15T00:37:59.721Z,26.29
2023-09-15T00:39:01.107Z,26.29
2023-09-15T00:40:02.563Z,26.23
2023-09-15T00:41:04.056Z,26.29
2023-09-15T00:42:05.442Z,26.26
2023-09-15T00:43:06.874Z,26.26
2023-09-15T00:44:08.264Z,26.31
2023-09-15T00:45:09.654Z,26.31
2023-09-15T00:46:11.124Z,26.34
2023-09-15T00:47:12.545Z,26.33
2023-09-15T00:48:14.005Z,26.29
2023-09-15T00:49:15.498Z,26.26
2023-09-15T00:50:16.894Z,26.34
2023-09-15T00:51:18.292Z,26.29
2023-09-15T00:52:19.703Z,26.28
2023-09-15T00:53:21.165Z,26.33
2023-09-15T00:54:22.585Z,26.33
2023-09-15T00:55:24.031Z,26.31
2023-09-15T00:56:25.420Z,26.29
2023-09-15T00:57:26.810Z,26.25
2023-09-15T00:58:28.240Z,26.23
2023-09-15T00:59:29.633Z,26.29
2023-09-15T01:00:31.031Z,26.19
2023-09-15T01:01:32.542Z,26.22
2023-09-15T01:02:34.052Z,26.23
2023-09-15T01:03:35.633Z,26.22
2023-09-15T01:04:36.912Z,26.26
2023-09-15T01:05:38.305Z,26.25
2023-09-15T01:06:39.711Z,26.21
2023-09-15T01:07:41.079Z,26.21
2023-09-15T01:08:42.475Z,26.19
2023-09-15T01:09:43.900Z,26.26
2023-09-15T01:10:45.284Z,26.23
2023-09-15T01:11:46.678Z,26.18
2023-09-15T01:12:48.073Z,26.23
2023-09-15T01:13:49.478Z,26.22
2023-09-15T01:14:50.875Z,26.19
2023-09-15T01:15:52.361Z,26.18
2023-09-15T01:16:53.777Z,26.22
2023-09-15T01:17:55.240Z,26.21
2023-09-15T01:18:56.643Z,26.23
2023-09-15T01:19:58.034Z,26.21
2023-09-15T01:20:59.448Z,26.19
2023-09-15T01:22:00.897Z,26.21
2023-09-15T01:23:02.307Z,26.19
2023-09-15T01:24:03.701Z,26.22
2023-09-15T01:25:05.110Z,26.25
2023-09-15T01:26:06.488Z,26.19
2023-09-15T01:27:07.879Z,26.19
2023-09-15T01:28:09.318Z,26.18
2023-09-15T01:29:10.735Z,26.19
2023-09-15T01:30:12.123Z,26.21
2023-09-15T01:31:13.609Z,26.19
2023-09-15T01:32:15.041Z,26.19
2023-09-15T01:33:16.442Z,26.21
2023-09-15T01:34:17.961Z,26.22
2023-09-15T01:35:19.294Z,26.10
2023-09-15T01:36:20.691Z,26.19
2023-09-15T01:37:22.170Z,26.15
2023-09-15T01:38:23.531Z,26.16
2023-09-15T01:39:24.926Z,26.19
2023-09-15T01:40:26.379Z,26.19
2023-09-15T01:41:27.805Z,26.22
2023-09-15T01:42:29.214Z,26.19
2023-09-15T01:43:30.729Z,26.15
2023-09-15T01:44:32.126Z,26.16
2023-09-15T01:45:33.604Z,26.18
2023-09-15T01:46:35.029Z,26.22
2023-09-15T01:47:36.446Z,26.16
2023-09-15T01:48:37.837Z,26.07
2023-09-15T01:49:39.305Z,26.15
2023-09-15T01:50:40.713Z,26.15
2023-09-15T01:51:42.172Z,26.15
2023-09-15T01:52:43.585Z,26.18
2023-09-15T01:53:44.967Z,26.19
2023-09-15T01:54:46.426Z,26.18
2023-09-15T01:55:47.876Z,26.13
2023-09-15T01:56:49.243Z,26.16
2023-09-15T01:57:50.670Z,26.19
2023-09-15T01:58:52.061Z,26.16
2023-09-15T01:59:53.462Z,26.09
2023-09-15T02:00:54.970Z,26.21
2023-09-15T02:01:56.520Z,26.19
2023-09-15T02:02:58.075Z,26.19
2023-09-15T02:03:59.501Z,26.18
2023-09-15T02:05:00.917Z,26.18
2023-09-15T02:06:02.371Z,26.16
2023-09-15T02:07:03.776Z,26.19
2023-09-15T02:08:05.193Z,26.19
2023-09-15T02:09:06.584Z,26.16
2023-09-15T02:10:08.019Z,26.18
2023-09-15T02:11:09.401Z,26.18
2023-09-15T02:12:10.844Z,26.15
2023-09-15T02:13:12.268Z,26.21
2023-09-15T02:14:13.682Z,26.16
2023-09-15T02:15:15.076Z,26.18
2023-09-15T02:16:16.497Z,26.16
2023-09-15T02:17:17.902Z,26.19
2023-09-15T02:18:19.296Z,26.18
2023-09-15T02:19:20.706Z,26.19
2023-09-15T02:20:22.169Z,26.16
2023-09-15T02:21:23.573Z,26.15
2023-09-15T02:22:24.977Z,26.18
2023-09-15T02:23:26.370Z,26.10
2023-09-15T02:24:27.769Z,26.15
2023-09-15T02:25:29.225Z,26.13
2023-09-15T02:26:30.618Z,26.09
2023-09-15T02:27:32.011Z,26.16
2023-09-15T02:28:33.400Z,26.18
2023-09-15T02:29:34.790Z,26.18
2023-09-15T02:30:36.201Z,26.21
2023-09-15T02:31:37.636Z,26.21
2023-09-15T02:32:39.092Z,26.15
2023-09-15T02:33:40.479Z,26.16
2023-09-15T02:34:41.871Z,26.15
2023-09-15T02:35:43.400Z,26.15
2023-09-15T02:36:44.808Z,26.16
2023-09-15T02:37:46.214Z,26.09
2023-09-15T02:38:47.823Z,26.10
2023-09-15T02:39:49.479Z,26.07
2023-09-15T02:40:50.871Z,26.09
2023-09-15T02:41:52.275Z,26.09
2023-09-15T02:42:53.677Z,26.18
2023-09-15T02:43:55.074Z,26.09
2023-09-15T02:44:56.514Z,26.09
2023-09-15T02:45:57.958Z,26.16
2023-09-15T02:46:59.386Z,26.16
2023-09-15T02:48:00.826Z,26.10
2023-09-15T02:49:02.829Z,26.19
2023-09-15T02:50:04.240Z,26.09
2023-09-15T02:51:05.834Z,26.18
2023-09-15T02:52:07.190Z,26.09
2023-09-15T02:53:08.596Z,26.03
2023-09-15T02:54:10.050Z,26.10
2023-09-15T02:55:11.540Z,26.07
2023-09-15T02:56:12.961Z,26.07
2023-09-15T02:57:14.401Z,26.09
2023-09-15T02:58:15.848Z,26.07
2023-09-15T02:59:17.228Z,26.09
2023-09-15T03:00:18.655Z,26.15
2023-09-15T03:01:20.112Z,26.06
2023-09-15T03:02:21.511Z,26.13
2023-09-15T03:03:22.961Z,26.07
2023-09-15T03:04:24.403Z,26.10
2023-09-15T03:05:25.859Z,26.06
2023-09-15T03:06:27.456Z,26.10
2023-09-15T03:07:28.806Z,26.13
2023-09-15T03:08:30.202Z,26.09
2023-09-15T03:09:31.582Z,26.16
2023-09-15T03:10:33.016Z,26.09
2023-09-15T03:11:34.388Z,26.10
2023-09-15T03:12:35.774Z,26.05
2023-09-15T03:13:37.218Z,26.18
2023-09-15T03:14:38.606Z,26.06
2023-09-15T03:15:40.038Z,26.10
2023-09-15T03:16:41.528Z,26.05
2023-09-15T03:17:43.063Z,26.07
2023-09-15T03:18:44.480Z,26.09
2023-09-15T03:19:45.875Z,26.09
2023-09-15T03:20:47.263Z,26.15
2023-09-15T03:21:48.829Z,26.15
2023-09-15T03:22:50.115Z,26.13
2023-09-15T03:23:51.504Z,26.09
2023-09-15T03:24:52.912Z,26.13
2023-09-15T03:25:54.326Z,26.06
2023-09-15T03:26:55.722Z,26.05
2023-09-15T03:27:57.227Z,26.07
2023-09-15T03:28:58.645Z,25.95
2023-09-15T03:30:00.041Z,26.05
2023-09-15T03:31:01.536Z,26.07
2023-09-15T03:32:03.034Z,26.09
2023-09-15T03:33:04.505Z,26.10
2023-09-15T03:34:05.935Z,26.09
2023-09-15T03:35:07.312Z,26.07
2023-09-15T03:36:08.734Z,26.09
2023-09-15T03:37:12.272Z,26.05
2023-09-15T03:38:12.535Z,26.13
2023-09-15T03:39:13.923Z,26.00
2023-09-15T03:40:15.337Z,26.09
2023-09-15T03:41:16.755Z,26.13
2023-09-15T03:42:18.144Z,26.07
2023-09-15T03:43:19.666Z,26.03
2023-09-15T03:44:21.037Z,26.13
2023-09-15T03:45:22.452Z,26.10
2023-09-15T03:46:23.942Z,26.13
2023-09-15T03:47:25.329Z,25.99
2023-09-15T03:48:26.727Z,26.15
2023-09-15T03:49:28.189Z,26.07
2023-09-15T03:50:29.626Z,26.09
2023-09-15T03:51:31.009Z,26.05
2023-09-15T03:52:32.601Z,26.00
2023-09-15T03:53:33.970Z,26.10
2023-09-15T03:54:35.350Z,26.15
2023-09-15T03:55:36.797Z,26.03
2023-09-15T03:56:38.240Z,26.09
2023-09-15T03:57:39.645Z,26.09
2023-09-15T03:58:41.805Z,26.07
2023-09-15T03:59:43.321Z,26.07
2023-09-15T04:00:44.726Z,25.95
2023-09-15T04:01:46.209Z,26.09
2023-09-15T04:02:47.629Z,26.13
2023-09-15T04:03:49.133Z,25.98
2023-09-15T04:04:50.451Z,26.09
2023-09-15T04:05:51.838Z,26.09
2023-09-15T04:06:53.395Z,26.02
2023-09-15T04:07:54.892Z,26.07
2023-09-15T04:08:56.262Z,26.05
2023-09-15T04:09:57.733Z,26.03
2023-09-15T04:10:59.155Z,26.03
2023-09-15T04:12:00.567Z,26.07
2023-09-15T04:13:01.974Z,26.09
2023-09-15T04:14:03.353Z,26.10
2023-09-15T04:15:04.739Z,26.09
2023-09-15T04:16:06.259Z,26.07
2023-09-15T04:17:07.765Z,26.06
2023-09-15T04:18:09.228Z,26.05
2023-09-15T04:19:10.778Z,25.99
2023-09-15T04:20:12.169Z,26.00
2023-09-15T04:21:13.567Z,25.99
2023-09-15T04:22:14.974Z,26.00
2023-09-15T04:23:16.433Z,26.03
2023-09-15T04:24:17.773Z,26.09
2023-09-15T04:25:19.179Z,26.09
2023-09-15T04:26:20.589Z,25.98
2023-09-15T04:27:21.981Z,26.03
2023-09-15T04:28:23.479Z,25.99
2023-09-15T04:29:24.886Z,25.96
2023-09-15T04:30:26.276Z,26.03
2023-09-15T04:31:27.762Z,25.96
2023-09-15T04:32:29.185Z,26.06
2023-09-15T04:33:30.576Z,26.06
2023-09-15T04:34:31.965Z,26.00
2023-09-15T04:35:33.361Z,26.05
2023-09-15T04:36:36.250Z,26.06
2023-09-15T04:37:37.157Z,26.02
2023-09-15T04:38:38.721Z,25.96
2023-09-15T04:39:40.062Z,26.07
2023-09-15T04:40:41.458Z,26.07
2023-09-15T04:41:42.858Z,26.06
2023-09-15T04:42:44.254Z,26.07
2023-09-15T04:43:45.711Z,25.96
2023-09-15T04:44:47.100Z,26.02
2023-09-15T04:45:48.569Z,25.95
2023-09-15T04:46:50.060Z,26.10
2023-09-15T04:47:51.616Z,26.02
2023-09-15T04:48:53.054Z,26.05
2023-09-15T04:49:54.452Z,26.07
2023-09-15T04:50:55.841Z,25.93
2023-09-15T04:51:57.267Z,25.98
2023-09-15T04:52:58.652Z,25.93
2023-09-15T04:54:00.199Z,26.07
2023-09-15T04:55:01.548Z,25.96
2023-09-15T04:56:02.953Z,25.96
2023-09-15T04:57:04.352Z,25.96
2023-09-15T04:58:05.844Z,26.00
2023-09-15T04:59:07.267Z,26.00
2023-09-15T05:00:08.669Z,26.09
2023-09-15T05:01:10.180Z,25.98
2023-09-15T05:02:11.580Z,25.99
2023-09-15T05:03:12.993Z,26.02
2023-09-15T05:04:14.492Z,26.00
2023-09-15T05:05:15.925Z,25.98
2023-09-15T05:06:17.314Z,25.96
2023-09-15T05:07:18.784Z,25.98
2023-09-15T05:08:20.204Z,25.95
2023-09-15T05:09:21.843Z,26.03
2023-09-15T05:10:23.096Z,25.95
2023-09-15T05:11:24.496Z,25.93
2023-09-15T05:12:25.887Z,26.00
2023-09-15T05:13:27.430Z,25.96
2023-09-15T05:14:28.828Z,25.99
2023-09-15T05:15:30.227Z,26.00
2023-09-15T05:16:31.892Z,25.95
2023-09-15T05:17:33.365Z,26.00
2023-09-15T05:18:34.748Z,26.03
2023-09-15T05:19:36.130Z,26.00
2023-09-15T05:20:37.530Z,25.98
2023-09-15T05:21:38.968Z,25.95
2023-09-15T05:22:40.365Z,26.00
2023-09-15T05:23:41.822Z,26.02
2023-09-15T05:24:43.269Z,25.99
2023-09-15T05:25:44.663Z,25.99
2023-09-15T05:26:46.050Z,26.05
2023-09-15T05:27:47.456Z,26.02
2023-09-15T05:28:48.988Z,26.00
2023-09-15T05:29:50.618Z,25.96
2023-09-15T05:30:52.183Z,25.95
2023-09-15T05:31:53.652Z,25.96
2023-09-15T05:32:55.118Z,25.96
2023-09-15T05:33:56.630Z,26.02
2023-09-15T05:34:58.188Z,26.02
2023-09-15T05:35:59.626Z,26.05
2023-09-15T05:37:01.059Z,26.05
2023-09-15T05:38:02.469Z,26.06
2023-09-15T05:39:03.860Z,25.95
2023-09-15T05:40:05.327Z,25.99
2023-09-15T05:41:06.685Z,25.98
2023-09-15T05:42:08.179Z,26.06
2023-09-15T05:43:12.316Z,25.98
2023-09-15T05:44:12.001Z,26.00
2023-09-15T05:45:13.493Z,26.02
2023-09-15T05:46:14.997Z,25.96
2023-09-15T05:47:16.415Z,26.02
2023-09-15T05:48:17.809Z,26.02
2023-09-15T05:49:19.259Z,25.96
2023-09-15T05:50:20.670Z,25.96
2023-09-15T05:51:22.059Z,26.05
2023-09-15T05:52:23.641Z,25.98
2023-09-15T05:53:24.908Z,26.03
2023-09-15T05:54:26.305Z,25.90
2023-09-15T05:55:27.968Z,26.03
2023-09-15T05:56:29.214Z,26.03
2023-09-15T05:57:30.606Z,25.95
2023-09-15T05:58:32.046Z,25.91
2023-09-15T05:59:33.444Z,25.96
2023-09-15T06:00:34.974Z,26.00
2023-09-15T06:01:36.469Z,26.03
2023-09-15T06:02:37.884Z,25.99
2023-09-15T06:03:39.321Z,25.99
2023-09-15T06:04:40.696Z,25.98
2023-09-15T06:05:42.093Z,25.95
2023-09-15T06:06:43.556Z,26.00
2023-09-15T06:07:45.062Z,26.03
2023-09-15T06:08:46.707Z,26.02
2023-09-15T06:09:47.896Z,25.90
2023-09-15T06:10:49.375Z,26.03
2023-09-15T06:11:50.739Z,25.98
2023-09-15T06:12:52.173Z,25.98
2023-09-15T06:13:53.660Z,26.03
2023-09-15T06:14:55.050Z,26.00
2023-09-15T06:15:56.467Z,25.96
2023-09-15T06:16:58.009Z,25.88
2023-09-15T06:17:59.353Z,25.98
2023-09-15T06:19:00.771Z,25.98
2023-09-15T06:20:02.178Z,25.88
2023-09-15T06:21:03.571Z,25.91
2023-09-15T06:22:05.009Z,25.95
2023-09-15T06:23:06.416Z,25.90
2023-09-15T06:24:07.799Z,25.91
2023-09-15T06:25:09.196Z,25.91
2023-09-15T06:26:10.801Z,25.84
2023-09-15T06:27:12.149Z,25.98
2023-09-15T06:28:21.680Z,25.87
2023-09-15T06:29:15.949Z,25.98
2023-09-15T06:30:17.350Z,25.85
2023-09-15T06:31:18.925Z,25.98
2023-09-15T06:32:20.324Z,25.88
2023-09-15T06:33:21.772Z,25.88
2023-09-15T06:34:23.222Z,25.88
2023-09-15T06:35:24.607Z,25.88
2023-09-15T06:36:26.007Z,25.88
2023-09-15T06:37:27.475Z,25.93
2023-09-15T06:38:28.889Z,25.88
2023-09-15T06:39:30.337Z,25.91
2023-09-15T06:40:31.757Z,25.85
2023-09-15T06:41:33.356Z,25.88
2023-09-15T06:42:34.698Z,25.85
2023-09-15T06:43:36.285Z,25.88
2023-09-15T06:44:37.822Z,25.88
2023-09-15T06:45:39.286Z,25.85
2023-09-15T06:46:43.086Z,25.90
2023-09-15T06:47:43.145Z,25.88
2023-09-15T06:48:44.740Z,25.85
2023-09-15T06:49:46.179Z,25.85
2023-09-15T06:50:47.615Z,25.91
2023-09-15T06:51:49.005Z,25.88
2023-09-15T06:52:50.393Z,25.95
2023-09-15T06:53:51.809Z,25.90
2023-09-15T06:54:53.251Z,25.88
2023-09-15T06:55:54.648Z,25.83
2023-09-15T06:56:56.178Z,25.84
2023-09-15T06:57:57.631Z,25.84
2023-09-15T06:58:59.178Z,25.85
2023-09-15T07:00:00.583Z,25.83
2023-09-15T07:01:02.115Z,25.90
2023-09-15T07:02:03.585Z,25.84
2023-09-15T07:03:05.073Z,25.85
2023-09-15T07:04:06.515Z,25.91
2023-09-15T07:05:07.914Z,25.88
2023-09-15T07:06:09.344Z,25.88
2023-09-15T07:07:10.748Z,25.87
2023-09-15T07:08:12.168Z,25.87
2023-09-15T07:09:13.565Z,25.90
2023-09-15T07:10:14.969Z,25.85
2023-09-15T07:11:16.337Z,25.81
2023-09-15T07:12:17.725Z,25.85
2023-09-15T07:13:19.175Z,25.78
2023-09-15T07:14:20.595Z,25.81
2023-09-15T07:15:22.041Z,25.80
2023-09-15T07:16:23.560Z,25.78
2023-09-15T07:17:24.942Z,25.77
2023-09-15T07:18:26.394Z,25.72
2023-09-15T07:19:27.914Z,25.70
2023-09-15T07:20:29.329Z,25.70
2023-09-15T07:21:30.713Z,25.72
2023-09-15T07:22:32.149Z,25.69
2023-09-15T07:23:33.603Z,25.66
2023-09-15T07:24:35.103Z,25.66
2023-09-15T07:25:36.595Z,25.63
2023-09-15T07:26:37.994Z,25.66
2023-09-15T07:27:39.460Z,25.63
2023-09-15T07:28:40.808Z,25.58
2023-09-15T07:29:42.198Z,25.59
2023-09-15T07:30:43.653Z,25.63
2023-09-15T07:31:45.118Z,25.59
2023-09-15T07:32:46.523Z,25.60
2023-09-15T07:33:48.126Z,25.59
2023-09-15T07:34:49.649Z,25.53
2023-09-15T07:35:51.127Z,25.58
2023-09-15T07:36:52.519Z,25.51
2023-09-15T07:37:53.916Z,25.53
2023-09-15T07:38:55.356Z,25.59
2023-09-15T07:39:56.787Z,25.59
2023-09-15T07:40:58.152Z,25.50
2023-09-15T07:41:59.604Z,25.53
2023-09-15T07:43:01.045Z,25.50
2023-09-15T07:44:02.424Z,25.55
2023-09-15T07:45:03.871Z,25.50
2023-09-15T07:46:05.313Z,25.48
2023-09-15T07:47:07.919Z,25.58
2023-09-15T07:48:09.274Z,25.58
2023-09-15T07:49:10.714Z,25.48
2023-09-15T07:50:12.132Z,25.54
2023-09-15T07:51:13.521Z,25.48
2023-09-15T07:52:17.077Z,25.47
2023-09-15T07:53:17.285Z,25.53
2023-09-15T07:54:18.681Z,25.51
2023-09-15T07:55:20.156Z,25.53
2023-09-15T07:56:21.529Z,25.47
2023-09-15T07:57:22.972Z,25.53
2023-09-15T07:58:24.469Z,25.50
2023-09-15T07:59:25.799Z,25.51
2023-09-15T08:00:27.187Z,25.47
2023-09-15T08:01:28.623Z,25.53
2023-09-15T08:02:30.125Z,25.46
2023-09-15T08:03:31.857Z,25.44
2023-09-15T08:04:33.262Z,25.44
2023-09-15T08:05:34.801Z,25.50
2023-09-15T08:06:36.170Z,25.46
2023-09-15T08:07:37.599Z,25.46
2023-09-15T08:08:38.988Z,25.41
2023-09-15T08:09:40.385Z,25.40
2023-09-15T08:10:41.783Z,25.38
2023-09-15T08:11:43.174Z,25.44
2023-09-15T08:12:44.564Z,25.43
2023-09-15T08:13:46.370Z,25.44
2023-09-15T08:14:47.404Z,25.44
2023-09-15T08:15:48.801Z,25.44
2023-09-15T08:16:50.332Z,25.38
2023-09-15T08:17:52.147Z,25.48
2023-09-15T08:18:54.170Z,25.35
2023-09-15T08:19:55.555Z,25.44
2023-09-15T08:20:56.943Z,25.41
2023-09-15T08:21:58.391Z,25.47
2023-09-15T08:22:59.768Z,25.44
2023-09-15T08:24:01.154Z,25.35
2023-09-15T08:25:02.569Z,25.40
2023-09-15T08:26:04.045Z,25.36
2023-09-15T08:27:05.615Z,25.44
2023-09-15T08:28:08.008Z,25.36
2023-09-15T08:29:09.394Z,25.40
2023-09-15T08:30:10.840Z,25.40
2023-09-15T08:31:12.248Z,25.40
2023-09-15T08:32:13.694Z,25.36
2023-09-15T08:33:15.304Z,25.38
2023-09-15T08:34:16.763Z,25.38
2023-09-15T08:35:18.173Z,25.40
2023-09-15T08:36:19.569Z,25.33
2023-09-15T08:37:21.042Z,25.44
2023-09-15T08:38:22.451Z,25.44
2023-09-15T08:39:23.842Z,25.51
2023-09-15T08:40:25.280Z,25.50
2023-09-15T08:41:26.655Z,25.48
2023-09-15T08:42:28.053Z,25.60
2023-09-15T08:43:31.055Z,25.51
2023-09-15T08:44:32.027Z,25.55
2023-09-15T08:45:33.392Z,25.60
2023-09-15T08:46:34.929Z,25.51
2023-09-15T08:47:36.282Z,25.59
2023-09-15T08:48:37.660Z,25.63
2023-09-15T08:49:39.177Z,25.63
2023-09-15T08:50:40.702Z,25.58
2023-09-15T08:51:42.083Z,25.62
2023-09-15T08:52:43.540Z,25.69
2023-09-15T08:53:44.978Z,25.66
2023-09-15T08:54:46.524Z,25.66
2023-09-15T08:55:47.926Z,25.66
2023-09-15T08:56:49.318Z,25.72
2023-09-15T08:57:50.763Z,25.69
2023-09-15T08:58:52.162Z,25.65
2023-09-15T08:59:54.658Z,25.70
2023-09-15T09:00:55.125Z,25.69
2023-09-15T09:01:56.591Z,25.66
2023-09-15T09:02:58.160Z,25.65
2023-09-15T09:04:00.038Z,25.68
2023-09-15T09:05:01.913Z,25.69
2023-09-15T09:06:03.906Z,25.63
2023-09-15T09:07:05.312Z,25.69
2023-09-15T09:08:06.699Z,25.68
2023-09-15T09:09:08.094Z,25.72
2023-09-15T09:10:09.563Z,25.77
2023-09-15T09:11:10.980Z,25.66
2023-09-15T09:12:12.371Z,25.77
2023-09-15T09:13:15.934Z,25.77
2023-09-15T09:14:17.570Z,25.77
2023-09-15T09:15:19.033Z,25.78
2023-09-15T09:16:20.450Z,25.80
2023-09-15T09:17:21.876Z,25.75
2023-09-15T09:18:23.272Z,25.77
2023-09-15T09:19:24.798Z,25.77
2023-09-15T09:20:26.253Z,25.77
2023-09-15T09:21:27.682Z,25.90
2023-09-15T09:22:29.346Z,25.81
2023-09-15T09:23:30.828Z,25.81
2023-09-15T09:24:32.219Z,25.77
2023-09-15T09:25:33.619Z,25.80
2023-09-15T09:26:35.043Z,25.80
2023-09-15T09:27:36.446Z,25.83
2023-09-15T09:28:37.849Z,25.83
2023-09-15T09:29:39.272Z,25.81
2023-09-15T09:30:40.748Z,25.84
2023-09-15T09:31:42.187Z,25.87
2023-09-15T09:32:43.594Z,25.81
2023-09-15T09:33:44.966Z,25.85
2023-09-15T09:34:48.020Z,25.81
2023-09-15T09:35:48.796Z,25.77
2023-09-15T09:36:50.198Z,25.88
2023-09-15T09:37:51.575Z,25.88
2023-09-15T09:38:52.976Z,25.83
2023-09-15T09:39:54.362Z,25.85
2023-09-15T09:40:55.926Z,25.83
2023-09-15T09:41:57.320Z,25.88
2023-09-15T09:42:58.714Z,25.81
2023-09-15T09:44:00.104Z,25.81
2023-09-15T09:45:01.534Z,25.81
2023-09-15T09:46:02.957Z,25.84
2023-09-15T09:47:04.372Z,25.84
2023-09-15T09:48:05.960Z,25.88
2023-09-15T09:49:07.409Z,25.83
2023-09-15T09:50:08.818Z,25.85
2023-09-15T09:51:10.228Z,25.81
2023-09-15T09:52:11.692Z,25.83
2023-09-15T09:53:13.192Z,25.84
2023-09-15T09:54:16.502Z,25.81
2023-09-15T09:55:16.973Z,25.80
2023-09-15T09:56:18.426Z,25.87
2023-09-15T09:57:19.830Z,25.84
2023-09-15T09:58:21.208Z,25.84
2023-09-15T09:59:22.690Z,25.83
2023-09-15T10:00:24.268Z,25.88
2023-09-15T10:01:25.739Z,25.80
2023-09-15T10:02:27.193Z,25.80
2023-09-15T10:03:28.719Z,25.88
2023-09-15T10:04:30.221Z,25.83
2023-09-15T10:05:31.625Z,25.88
2023-09-15T10:06:33.037Z,25.85
2023-09-15T10:07:34.424Z,25.83
2023-09-15T10:08:35.819Z,25.85
2023-09-15T10:09:37.232Z,25.85
2023-09-15T10:10:38.657Z,25.88
2023-09-15T10:11:40.052Z,25.84
2023-09-15T10:12:41.475Z,25.85
2023-09-15T10:13:42.846Z,25.85
2023-09-15T10:14:44.241Z,25.87
2023-09-15T10:15:45.761Z,25.85
2023-09-15T10:16:47.197Z,25.85
2023-09-15T10:17:48.645Z,25.90
2023-09-15T10:18:50.646Z,25.85
2023-09-15T10:19:52.310Z,25.87
2023-09-15T10:20:53.716Z,25.88
2023-09-15T10:21:55.138Z,25.87
2023-09-15T10:22:56.533Z,25.85
2023-09-15T10:23:57.930Z,25.91
2023-09-15T10:24:59.336Z,25.91
2023-09-15T10:26:00.753Z,25.88
2023-09-15T10:27:02.216Z,25.91
2023-09-15T10:28:03.604Z,25.84
2023-09-15T10:29:05.012Z,25.91
2023-09-15T10:30:06.434Z,25.96
2023-09-15T10:31:09.725Z,25.91
2023-09-15T10:32:10.697Z,25.93
2023-09-15T10:33:12.161Z,25.88
2023-09-15T10:34:13.559Z,25.84
2023-09-15T10:35:14.957Z,25.88
2023-09-15T10:36:16.591Z,25.87
2023-09-15T10:37:17.783Z,25.96
2023-09-15T10:38:19.173Z,25.88
2023-09-15T10:39:20.614Z,25.99
2023-09-15T10:40:22.042Z,25.87
2023-09-15T10:41:23.503Z,25.96
2023-09-15T10:42:25.008Z,26.05
2023-09-15T10:43:28.140Z,25.90
2023-09-15T10:44:28.772Z,26.00
2023-09-15T10:45:30.723Z,26.02
2023-09-15T10:46:32.159Z,25.98
2023-09-15T10:47:33.644Z,25.99
2023-09-15T10:48:35.005Z,26.00
2023-09-15T10:49:36.421Z,26.00
2023-09-15T10:50:37.816Z,26.00
2023-09-15T10:51:39.244Z,25.98
2023-09-15T10:52:40.779Z,25.98
2023-09-15T10:53:42.177Z,26.02
2023-09-15T10:54:43.664Z,26.00
2023-09-15T10:55:45.085Z,26.02
2023-09-15T10:56:46.480Z,26.02
2023-09-15T10:57:47.875Z,26.03
2023-09-15T10:58:49.852Z,25.95
2023-09-15T10:59:51.553Z,26.03
2023-09-15T11:00:53.028Z,26.00
2023-09-15T11:01:54.405Z,26.03
2023-09-15T11:02:55.873Z,25.98
2023-09-15T11:03:57.243Z,26.03
2023-09-15T11:04:58.648Z,26.05
2023-09-15T11:06:00.065Z,25.96
2023-09-15T11:07:01.606Z,25.98
2023-09-15T11:08:03.060Z,26.05
2023-09-15T11:09:04.544Z,25.98
2023-09-15T11:10:05.944Z,26.00
2023-09-15T11:11:07.404Z,25.99
2023-09-15T11:12:08.855Z,25.98
2023-09-15T11:13:10.289Z,25.93
2023-09-15T11:14:11.677Z,26.00
2023-09-15T11:15:13.143Z,25.95
2023-09-15T11:16:14.586Z,26.06
2023-09-15T11:17:16.037Z,25.98
2023-09-15T11:18:17.479Z,26.05
2023-09-15T11:19:18.895Z,26.05
2023-09-15T11:20:20.288Z,26.00
2023-09-15T11:21:21.748Z,26.07
2023-09-15T11:22:23.120Z,26.16
2023-09-15T11:23:24.511Z,25.98
2023-09-15T11:24:25.922Z,26.09
2023-09-15T11:25:27.313Z,26.10
2023-09-15T11:26:28.911Z,26.00
2023-09-15T11:27:30.353Z,25.99
2023-09-15T11:28:31.750Z,26.07
2023-09-15T11:29:33.243Z,26.07
2023-09-15T11:30:36.357Z,26.07
2023-09-15T11:31:37.891Z,26.13
2023-09-15T11:32:39.421Z,26.10
2023-09-15T11:33:41.012Z,26.07
2023-09-15T11:34:42.391Z,26.02
2023-09-15T11:35:43.777Z,26.07
2023-09-15T11:36:45.206Z,26.09
2023-09-15T11:37:46.760Z,26.10
2023-09-15T11:38:48.302Z,26.15
2023-09-15T11:39:49.851Z,26.09
2023-09-15T11:40:51.252Z,26.05
2023-09-15T11:41:52.636Z,26.10
2023-09-15T11:42:54.044Z,26.05
2023-09-15T11:43:55.432Z,26.15
2023-09-15T11:44:56.944Z,26.07
2023-09-15T11:45:58.338Z,26.03
2023-09-15T11:46:59.741Z,26.09
2023-09-15T11:48:01.213Z,26.07
2023-09-15T11:49:03.145Z,26.09
2023-09-15T11:50:06.679Z,26.07
2023-09-15T11:51:05.967Z,26.18
2023-09-15T11:52:07.340Z,26.09
2023-09-15T11:53:08.742Z,26.07
2023-09-15T11:54:10.143Z,26.09
2023-09-15T11:55:11.514Z,26.18
2023-09-15T11:56:12.909Z,26.21
2023-09-15T11:57:14.352Z,26.09
2023-09-15T11:58:15.740Z,26.07
2023-09-15T11:59:17.133Z,26.09
2023-09-15T12:00:18.645Z,26.19
2023-09-15T12:01:20.136Z,26.21
2023-09-15T12:02:21.701Z,26.21
2023-09-15T12:03:23.243Z,26.05
2023-09-15T12:04:24.984Z,26.13
2023-09-15T12:05:26.153Z,26.07
2023-09-15T12:06:27.649Z,26.10
2023-09-15T12:07:29.052Z,26.10
2023-09-15T12:08:30.448Z,26.10
2023-09-15T12:09:31.935Z,26.06
2023-09-15T12:10:33.345Z,26.19
2023-09-15T12:11:34.726Z,26.15
2023-09-15T12:12:36.186Z,26.18
2023-09-15T12:13:37.598Z,26.18
2023-09-15T12:14:38.973Z,26.10
2023-09-15T12:15:40.397Z,26.16
2023-09-15T12:16:41.841Z,26.16
2023-09-15T12:17:43.225Z,26.09
2023-09-15T12:18:44.636Z,26.15
2023-09-15T12:19:46.091Z,26.15
2023-09-15T12:20:47.455Z,26.16
2023-09-15T12:21:48.852Z,26.21
2023-09-15T12:22:50.254Z,26.19
2023-09-15T12:23:51.789Z,26.16
2023-09-15T12:24:53.328Z,26.13
2023-09-15T12:25:54.718Z,26.21
2023-09-15T12:26:56.118Z,26.16
2023-09-15T12:27:57.505Z,26.10
2023-09-15T12:28:58.904Z,26.07
2023-09-15T12:30:00.306Z,26.03
2023-09-15T12:31:01.800Z,26.16
2023-09-15T12:32:03.170Z,26.10
2023-09-15T12:33:04.655Z,26.18
2023-09-15T12:34:06.116Z,26.10
2023-09-15T12:35:07.672Z,26.15
2023-09-15T12:36:09.097Z,26.19
2023-09-15T12:37:10.557Z,26.18
2023-09-15T12:38:11.958Z,26.15
2023-09-15T12:39:13.615Z,26.13
2023-09-15T12:40:15.101Z,26.13
2023-09-15T12:41:16.489Z,26.18
2023-09-15T12:42:17.931Z,26.19
2023-09-15T12:43:19.416Z,26.16
2023-09-15T12:44:20.863Z,26.18
2023-09-15T12:45:22.441Z,26.19
2023-09-15T12:46:23.999Z,26.16
2023-09-15T12:47:25.626Z,26.16
2023-09-15T12:49:42.496Z,26.10
2023-09-15T12:50:43.886Z,26.07
2023-09-15T12:51:45.364Z,26.16
2023-09-15T12:52:46.816Z,26.15
2023-09-15T12:53:48.468Z,26.13
2023-09-15T12:54:49.969Z,26.16
2023-09-15T12:55:51.353Z,26.13
2023-09-15T12:56:52.739Z,26.21
2023-09-15T12:57:54.128Z,26.19
2023-09-15T12:58:55.527Z,26.22
2023-09-15T12:59:56.922Z,26.19
2023-09-15T13:00:58.318Z,26.22
2023-09-15T13:01:59.853Z,26.22
2023-09-15T13:03:01.379Z,26.21
2023-09-15T13:04:03.092Z,26.18
2023-09-15T13:05:04.786Z,26.09
2023-09-15T13:06:06.405Z,26.22
2023-09-15T13:07:07.740Z,26.22
2023-09-15T13:08:09.180Z,26.21
2023-09-15T13:09:10.610Z,26.22
2023-09-15T13:10:12.055Z,26.19
2023-09-15T13:11:13.421Z,26.21
2023-09-15T13:12:14.832Z,26.22